Portada
METAR-TAF:

METAR-TAF

Aeropuertos :

Muscle Shoals, Alabama, Estados Unidos

latitud: 34-44-38N, longitud: 087-35-58W, altitud: 167 m

Observación

El informe se hizo hace 19 minutos, a las 18:00 UTC
Viento 9 kt del noroeste
Temperatura 14°C
Humedad 58%
Presión 1015 hPa
Visibilidad: 16.1 km
Nubes dispersas a una altura de 2800 ft

METAR: KMSL 271800Z AUTO 31009KT 10SM SCT028 14/06 A2998 RMK AO2 T01390056 $

Hora: 12:19 (18:19 UTC)

Pronóstico

El informe se hizo hace 59 minutos, a las 17:20 UTC
Pronóstico válido del 27 a las 18 UTC al 28 a las 18 UTC
Viento 9 kt del oeste-noroeste
Visibilidad: 10 km
Escasas nubes a una altura de 2500 ft
A partir de las 27 a las 2200 UTC
Viento 5 kt del noroeste
Visibilidad: 10 km
Cielo despejado
A partir de las 28 a las 0700 UTC
Viento 3 kt del noreste
Visibilidad: 10 km
Nubes dispersas a una altura de 15000 ft

TAF: KMSL 271720Z 2718/2818 30009KT P6SM FEW025 FM272200 32005KT P6SM SKC FM280700 04003KT P6SM SCT150

Observaciones y pronósticos meteorológicos de más de 4000 aeropuertos (mensajes METAR y TAF).

Los puntos amarillos y rojos representan las estaciones disponibles.

Ponga el ratón en el punto deseado para ver el nombre de la estación.

Haga clic para ver las observaciones y los pronósticos meteorológicos.

Para cambiar el mapa : haga clic en los botones verdes con una cruz de color negro para hacer un zoom, en el botón verde con un guión para alejar o en las flechas verdes para mapas adyacentes.


METAR-TAF: